sensor_id;sensor_type;location;lat;lon;timestamp;pressure;altitude;pressure_sealevel;temperature
80537;BMP280;69867;47.074;15.404;2023-06-26T00:01:34;97522.53;;;18.66
80537;BMP280;69867;47.074;15.404;2023-06-26T00:04:00;97525.34;;;18.63
80537;BMP280;69867;47.074;15.404;2023-06-26T00:06:26;97520.38;;;18.57
80537;BMP280;69867;47.074;15.404;2023-06-26T00:08:53;97521.75;;;18.48
80537;BMP280;69867;47.074;15.404;2023-06-26T00:11:19;97525.56;;;18.43
80537;BMP280;69867;47.074;15.404;2023-06-26T00:13:44;97523.19;;;18.38
80537;BMP280;69867;47.074;15.404;2023-06-26T00:16:10;97523.78;;;18.28
80537;BMP280;69867;47.074;15.404;2023-06-26T00:18:35;97520.72;;;18.35
80537;BMP280;69867;47.074;15.404;2023-06-26T00:21:00;97516.91;;;18.41
80537;BMP280;69867;47.074;15.404;2023-06-26T00:23:26;97528.53;;;18.37
80537;BMP280;69867;47.074;15.404;2023-06-26T00:25:51;97519.03;;;18.34
80537;BMP280;69867;47.074;15.404;2023-06-26T00:28:16;97518.53;;;18.28
80537;BMP280;69867;47.074;15.404;2023-06-26T00:30:42;97523.19;;;18.22
80537;BMP280;69867;47.074;15.404;2023-06-26T00:33:07;97516.47;;;18.17
80537;BMP280;69867;47.074;15.404;2023-06-26T00:35:33;97512.53;;;18.08
80537;BMP280;69867;47.074;15.404;2023-06-26T00:37:58;97519.84;;;18.03
80537;BMP280;69867;47.074;15.404;2023-06-26T00:40:23;97518.47;;;17.96
80537;BMP280;69867;47.074;15.404;2023-06-26T00:42:49;97514.31;;;17.92
80537;BMP280;69867;47.074;15.404;2023-06-26T00:45:15;97513.72;;;17.87
80537;BMP280;69867;47.074;15.404;2023-06-26T00:47:40;97510.22;;;17.86
80537;BMP280;69867;47.074;15.404;2023-06-26T00:50:06;97509.47;;;17.84
80537;BMP280;69867;47.074;15.404;2023-06-26T00:52:32;97512.19;;;17.83
80537;BMP280;69867;47.074;15.404;2023-06-26T00:54:58;97511.50;;;17.79
80537;BMP280;69867;47.074;15.404;2023-06-26T00:57:23;97505.78;;;17.71
80537;BMP280;69867;47.074;15.404;2023-06-26T00:59:49;97508.78;;;17.64
80537;BMP280;69867;47.074;15.404;2023-06-26T01:02:14;97510.06;;;17.56
80537;BMP280;69867;47.074;15.404;2023-06-26T01:04:39;97510.38;;;17.50
80537;BMP280;69867;47.074;15.404;2023-06-26T01:07:05;97514.09;;;17.46
80537;BMP280;69867;47.074;15.404;2023-06-26T01:09:31;97510.78;;;17.43
80537;BMP280;69867;47.074;15.404;2023-06-26T01:11:56;97510.00;;;17.41
80537;BMP280;69867;47.074;15.404;2023-06-26T01:14:22;97507.63;;;17.36
80537;BMP280;69867;47.074;15.404;2023-06-26T01:16:49;97514.03;;;17.31
80537;BMP280;69867;47.074;15.404;2023-06-26T01:19:27;97513.34;;;17.27
80537;BMP280;69867;47.074;15.404;2023-06-26T01:22:02;97514.34;;;17.24
80537;BMP280;69867;47.074;15.404;2023-06-26T01:24:33;97512.66;;;17.23
80537;BMP280;69867;47.074;15.404;2023-06-26T01:27:00;97509.47;;;17.17
80537;BMP280;69867;47.074;15.404;2023-06-26T01:29:28;97494.81;;;17.13
80537;BMP280;69867;47.074;15.404;2023-06-26T01:31:54;97502.78;;;17.11
80537;BMP280;69867;47.074;15.404;2023-06-26T01:34:20;97494.19;;;17.08
80537;BMP280;69867;47.074;15.404;2023-06-26T01:36:45;97493.44;;;17.06
80537;BMP280;69867;47.074;15.404;2023-06-26T01:39:15;97494.44;;;17.03
80537;BMP280;69867;47.074;15.404;2023-06-26T01:41:40;97485.09;;;16.98
80537;BMP280;69867;47.074;15.404;2023-06-26T01:46:42;97481.69;;;16.95
80537;BMP280;69867;47.074;15.404;2023-06-26T01:52:27;97481.84;;;16.92
80537;BMP280;69867;47.074;15.404;2023-06-26T01:55:05;97487.22;;;16.89
80537;BMP280;69867;47.074;15.404;2023-06-26T01:57:31;97477.56;;;16.90
80537;BMP280;69867;47.074;15.404;2023-06-26T01:59:56;97475.94;;;16.87
80537;BMP280;69867;47.074;15.404;2023-06-26T02:02:25;97478.66;;;16.86
80537;BMP280;69867;47.074;15.404;2023-06-26T02:04:51;97478.72;;;16.84
80537;BMP280;69867;47.074;15.404;2023-06-26T02:07:16;97475.31;;;16.82
80537;BMP280;69867;47.074;15.404;2023-06-26T02:09:41;97471.94;;;16.80
80537;BMP280;69867;47.074;15.404;2023-06-26T02:12:07;97469.47;;;16.77
80537;BMP280;69867;47.074;15.404;2023-06-26T02:14:32;97472.25;;;16.74
80537;BMP280;69867;47.074;15.404;2023-06-26T02:16:58;97474.25;;;16.69
80537;BMP280;69867;47.074;15.404;2023-06-26T02:19:23;97471.13;;;16.61
80537;BMP280;69867;47.074;15.404;2023-06-26T02:21:49;97476.38;;;16.61
80537;BMP280;69867;47.074;15.404;2023-06-26T02:24:14;97475.66;;;16.57
80537;BMP280;69867;47.074;15.404;2023-06-26T02:26:39;97474.81;;;16.57
80537;BMP280;69867;47.074;15.404;2023-06-26T02:29:05;97467.09;;;16.54
80537;BMP280;69867;47.074;15.404;2023-06-26T02:31:30;97473.13;;;16.56
80537;BMP280;69867;47.074;15.404;2023-06-26T02:33:55;97462.78;;;16.53
80537;BMP280;69867;47.074;15.404;2023-06-26T02:36:21;97470.66;;;16.53
80537;BMP280;69867;47.074;15.404;2023-06-26T02:38:46;97469.09;;;16.49
80537;BMP280;69867;47.074;15.404;2023-06-26T02:41:12;97475.25;;;16.48
80537;BMP280;69867;47.074;15.404;2023-06-26T02:43:37;97471.78;;;16.47
80537;BMP280;69867;47.074;15.404;2023-06-26T02:46:02;97475.25;;;16.48
80537;BMP280;69867;47.074;15.404;2023-06-26T02:48:27;97468.31;;;16.47
80537;BMP280;69867;47.074;15.404;2023-06-26T02:50:53;97475.25;;;16.48
80537;BMP280;69867;47.074;15.404;2023-06-26T02:53:18;97473.56;;;16.47
80537;BMP280;69867;47.074;15.404;2023-06-26T02:55:43;97466.69;;;16.44
80537;BMP280;69867;47.074;15.404;2023-06-26T02:58:09;97470.38;;;16.40
80537;BMP280;69867;47.074;15.404;2023-06-26T03:00:34;97466.91;;;16.40
80537;BMP280;69867;47.074;15.404;2023-06-26T03:02:59;97471.38;;;16.38
80537;BMP280;69867;47.074;15.404;2023-06-26T03:05:25;97467.91;;;16.37
80537;BMP280;69867;47.074;15.404;2023-06-26T03:07:50;97474.94;;;16.37
80537;BMP280;69867;47.074;15.404;2023-06-26T03:10:16;97474.00;;;16.38
80537;BMP280;69867;47.074;15.404;2023-06-26T03:12:41;97468.63;;;16.41
80537;BMP280;69867;47.074;15.404;2023-06-26T03:15:06;97465.00;;;16.43
80537;BMP280;69867;47.074;15.404;2023-06-26T03:17:32;97466.16;;;16.55
80537;BMP280;69867;47.074;15.404;2023-06-26T03:19:57;97465.25;;;16.56
80537;BMP280;69867;47.074;15.404;2023-06-26T03:22:23;97469.50;;;16.58
80537;BMP280;69867;47.074;15.404;2023-06-26T03:24:48;97465.72;;;16.64
80537;BMP280;69867;47.074;15.404;2023-06-26T03:27:13;97474.31;;;16.68
80537;BMP280;69867;47.074;15.404;2023-06-26T03:29:38;97475.94;;;16.70
80537;BMP280;69867;47.074;15.404;2023-06-26T03:32:04;97469.53;;;16.76
80537;BMP280;69867;47.074;15.404;2023-06-26T03:34:29;97471.78;;;16.83
80537;BMP280;69867;47.074;15.404;2023-06-26T03:36:55;97475.88;;;16.89
80537;BMP280;69867;47.074;15.404;2023-06-26T03:39:20;97476.59;;;16.92
80537;BMP280;69867;47.074;15.404;2023-06-26T03:41:45;97475.66;;;16.93
80537;BMP280;69867;47.074;15.404;2023-06-26T03:44:11;97473.66;;;16.99
80537;BMP280;69867;47.074;15.404;2023-06-26T03:46:36;97472.91;;;16.97
80537;BMP280;69867;47.074;15.404;2023-06-26T03:49:01;97472.56;;;17.03
80537;BMP280;69867;47.074;15.404;2023-06-26T03:51:27;97468.88;;;17.07
80537;BMP280;69867;47.074;15.404;2023-06-26T03:53:52;97470.41;;;17.11
80537;BMP280;69867;47.074;15.404;2023-06-26T03:56:17;97470.63;;;17.23
80537;BMP280;69867;47.074;15.404;2023-06-26T03:58:43;97465.50;;;17.38
80537;BMP280;69867;47.074;15.404;2023-06-26T04:01:08;97465.53;;;17.53
80537;BMP280;69867;47.074;15.404;2023-06-26T04:03:33;97471.78;;;17.68
80537;BMP280;69867;47.074;15.404;2023-06-26T04:05:59;97463.41;;;17.77
80537;BMP280;69867;47.074;15.404;2023-06-26T04:08:24;97472.41;;;17.89
80537;BMP280;69867;47.074;15.404;2023-06-26T04:10:49;97464.19;;;18.11
80537;BMP280;69867;47.074;15.404;2023-06-26T04:13:15;97468.13;;;18.35
80537;BMP280;69867;47.074;15.404;2023-06-26T04:15:40;97466.91;;;18.57
80537;BMP280;69867;47.074;15.404;2023-06-26T04:18:06;97466.53;;;18.78
80537;BMP280;69867;47.074;15.404;2023-06-26T04:20:31;97466.03;;;19.02
80537;BMP280;69867;47.074;15.404;2023-06-26T04:22:56;97469.94;;;19.25
80537;BMP280;69867;47.074;15.404;2023-06-26T04:25:21;97467.13;;;19.42
80537;BMP280;69867;47.074;15.404;2023-06-26T04:27:47;97468.44;;;19.65
80537;BMP280;69867;47.074;15.404;2023-06-26T04:30:13;97473.97;;;19.89
80537;BMP280;69867;47.074;15.404;2023-06-26T04:32:38;97464.03;;;20.06
80537;BMP280;69867;47.074;15.404;2023-06-26T04:35:03;97465.91;;;20.19
80537;BMP280;69867;47.074;15.404;2023-06-26T04:37:29;97470.78;;;20.39
80537;BMP280;69867;47.074;15.404;2023-06-26T04:39:54;97462.22;;;20.62
80537;BMP280;69867;47.074;15.404;2023-06-26T04:42:19;97468.63;;;21.25
80537;BMP280;69867;47.074;15.404;2023-06-26T04:44:45;97456.50;;;22.83
80537;BMP280;69867;47.074;15.404;2023-06-26T04:47:10;97450.06;;;24.66
80537;BMP280;69867;47.074;15.404;2023-06-26T04:49:35;97452.41;;;26.35
80537;BMP280;69867;47.074;15.404;2023-06-26T04:52:01;97435.56;;;27.60
80537;BMP280;69867;47.074;15.404;2023-06-26T04:54:26;97433.22;;;28.67
80537;BMP280;69867;47.074;15.404;2023-06-26T04:56:52;97434.34;;;29.61
80537;BMP280;69867;47.074;15.404;2023-06-26T04:59:17;97426.72;;;30.51
80537;BMP280;69867;47.074;15.404;2023-06-26T05:01:43;97423.34;;;31.24
80537;BMP280;69867;47.074;15.404;2023-06-26T05:04:08;97423.63;;;31.69
80537;BMP280;69867;47.074;15.404;2023-06-26T05:06:33;97424.94;;;32.29
80537;BMP280;69867;47.074;15.404;2023-06-26T05:08:59;97412.56;;;32.82
80537;BMP280;69867;47.074;15.404;2023-06-26T05:11:24;97423.41;;;33.34
80537;BMP280;69867;47.074;15.404;2023-06-26T05:13:50;97420.84;;;33.55
80537;BMP280;69867;47.074;15.404;2023-06-26T05:16:15;97417.13;;;33.71
80537;BMP280;69867;47.074;15.404;2023-06-26T05:18:40;97414.69;;;33.99
80537;BMP280;69867;47.074;15.404;2023-06-26T05:21:06;97399.22;;;34.08
80537;BMP280;69867;47.074;15.404;2023-06-26T05:23:33;97404.34;;;34.32
80537;BMP280;69867;47.074;15.404;2023-06-26T05:26:02;97408.19;;;34.44
80537;BMP280;69867;47.074;15.404;2023-06-26T05:28:28;97393.50;;;34.68
80537;BMP280;69867;47.074;15.404;2023-06-26T05:30:54;97401.38;;;34.84
80537;BMP280;69867;47.074;15.404;2023-06-26T05:33:21;97396.16;;;34.11
80537;BMP280;69867;47.074;15.404;2023-06-26T05:35:48;97408.50;;;34.34
80537;BMP280;69867;47.074;15.404;2023-06-26T05:38:14;97397.56;;;34.79
80537;BMP280;69867;47.074;15.404;2023-06-26T05:40:40;97401.47;;;35.12
80537;BMP280;69867;47.074;15.404;2023-06-26T05:43:06;97409.28;;;35.07
80537;BMP280;69867;47.074;15.404;2023-06-26T05:45:32;97408.88;;;34.67
80537;BMP280;69867;47.074;15.404;2023-06-26T05:47:57;97404.41;;;34.39
80537;BMP280;69867;47.074;15.404;2023-06-26T05:50:23;97412.38;;;34.47
80537;BMP280;69867;47.074;15.404;2023-06-26T05:52:49;97406.03;;;33.89
80537;BMP280;69867;47.074;15.404;2023-06-26T05:55:14;97405.38;;;34.01
80537;BMP280;69867;47.074;15.404;2023-06-26T05:57:40;97402.97;;;33.92
80537;BMP280;69867;47.074;15.404;2023-06-26T06:00:06;97418.44;;;33.23
80537;BMP280;69867;47.074;15.404;2023-06-26T06:02:32;97414.00;;;32.61
80537;BMP280;69867;47.074;15.404;2023-06-26T06:04:57;97405.03;;;33.37
80537;BMP280;69867;47.074;15.404;2023-06-26T06:07:22;97404.78;;;34.21
80537;BMP280;69867;47.074;15.404;2023-06-26T06:09:48;97399.66;;;34.26
80537;BMP280;69867;47.074;15.404;2023-06-26T06:12:13;97415.13;;;32.98
80537;BMP280;69867;47.074;15.404;2023-06-26T06:14:38;97405.16;;;32.75
80537;BMP280;69867;47.074;15.404;2023-06-26T06:17:04;97410.75;;;32.97
80537;BMP280;69867;47.074;15.404;2023-06-26T06:19:29;97400.00;;;33.34
80537;BMP280;69867;47.074;15.404;2023-06-26T06:21:54;97405.88;;;32.69
80537;BMP280;69867;47.074;15.404;2023-06-26T06:24:20;97407.19;;;32.73
80537;BMP280;69867;47.074;15.404;2023-06-26T06:26:45;97407.13;;;32.28
80537;BMP280;69867;47.074;15.404;2023-06-26T06:29:11;97402.50;;;32.05
80537;BMP280;69867;47.074;15.404;2023-06-26T06:31:36;97395.88;;;31.85
80537;BMP280;69867;47.074;15.404;2023-06-26T06:34:01;97401.63;;;32.52
80537;BMP280;69867;47.074;15.404;2023-06-26T06:36:27;97406.66;;;32.55
80537;BMP280;69867;47.074;15.404;2023-06-26T06:38:52;97411.03;;;31.54
80537;BMP280;69867;47.074;15.404;2023-06-26T06:41:17;97405.69;;;31.05
80537;BMP280;69867;47.074;15.404;2023-06-26T06:43:43;97408.34;;;30.06
80537;BMP280;69867;47.074;15.404;2023-06-26T06:46:08;97417.44;;;28.91
80537;BMP280;69867;47.074;15.404;2023-06-26T06:48:34;97415.34;;;28.67
80537;BMP280;69867;47.074;15.404;2023-06-26T06:51:00;97418.94;;;28.76
80537;BMP280;69867;47.074;15.404;2023-06-26T06:53:25;97413.91;;;28.73
80537;BMP280;69867;47.074;15.404;2023-06-26T06:55:51;97416.72;;;29.51
80537;BMP280;69867;47.074;15.404;2023-06-26T06:58:16;97406.31;;;29.48
80537;BMP280;69867;47.074;15.404;2023-06-26T07:00:42;97413.50;;;28.68
80537;BMP280;69867;47.074;15.404;2023-06-26T07:03:07;97414.31;;;28.51
80537;BMP280;69867;47.074;15.404;2023-06-26T07:05:33;97413.25;;;28.16
80537;BMP280;69867;47.074;15.404;2023-06-26T07:07:58;97414.75;;;28.01
80537;BMP280;69867;47.074;15.404;2023-06-26T07:10:23;97414.75;;;28.01
80537;BMP280;69867;47.074;15.404;2023-06-26T07:12:49;97423.06;;;27.61
80537;BMP280;69867;47.074;15.404;2023-06-26T07:15:14;97414.63;;;27.65
80537;BMP280;69867;47.074;15.404;2023-06-26T07:17:39;97415.94;;;27.23
80537;BMP280;69867;47.074;15.404;2023-06-26T07:20:05;97413.81;;;27.46
80537;BMP280;69867;47.074;15.404;2023-06-26T07:22:31;97414.97;;;27.14
80537;BMP280;69867;47.074;15.404;2023-06-26T07:24:56;97423.81;;;27.34
80537;BMP280;69867;47.074;15.404;2023-06-26T07:27:21;97411.84;;;27.48
80537;BMP280;69867;47.074;15.404;2023-06-26T07:29:47;97414.06;;;27.62
80537;BMP280;69867;47.074;15.404;2023-06-26T07:32:12;97416.81;;;27.80
80537;BMP280;69867;47.074;15.404;2023-06-26T07:34:37;97409.00;;;27.68
80537;BMP280;69867;47.074;15.404;2023-06-26T07:37:03;97407.19;;;27.96
80537;BMP280;69867;47.074;15.404;2023-06-26T07:39:29;97402.72;;;28.15
80537;BMP280;69867;47.074;15.404;2023-06-26T07:41:54;97408.66;;;28.36
80537;BMP280;69867;47.074;15.404;2023-06-26T07:44:20;97406.31;;;28.51
80537;BMP280;69867;47.074;15.404;2023-06-26T07:46:45;97415.31;;;28.50
80537;BMP280;69867;47.074;15.404;2023-06-26T07:49:11;97411.94;;;28.48
80537;BMP280;69867;47.074;15.404;2023-06-26T07:51:37;97407.50;;;28.39
80537;BMP280;69867;47.074;15.404;2023-06-26T07:54:02;97410.97;;;28.21
80537;BMP280;69867;47.074;15.404;2023-06-26T07:56:28;97414.94;;;28.17
80537;BMP280;69867;47.074;15.404;2023-06-26T07:58:53;97414.16;;;28.07
80537;BMP280;69867;47.074;15.404;2023-06-26T08:01:19;97411.91;;;28.02
80537;BMP280;69867;47.074;15.404;2023-06-26T08:03:44;97410.19;;;28.11
80537;BMP280;69867;47.074;15.404;2023-06-26T08:06:09;97402.88;;;27.86
80537;BMP280;69867;47.074;15.404;2023-06-26T08:08:35;97399.69;;;27.72
80537;BMP280;69867;47.074;15.404;2023-06-26T08:11:00;97407.00;;;27.70
80537;BMP280;69867;47.074;15.404;2023-06-26T08:13:25;97400.78;;;27.80
80537;BMP280;69867;47.074;15.404;2023-06-26T08:15:51;97406.03;;;27.99
80537;BMP280;69867;47.074;15.404;2023-06-26T08:18:17;97401.44;;;27.91
80537;BMP280;69867;47.074;15.404;2023-06-26T08:20:43;97402.91;;;28.03
80537;BMP280;69867;47.074;15.404;2023-06-26T08:23:11;97405.75;;;28.02
80537;BMP280;69867;47.074;15.404;2023-06-26T08:25:36;97412.22;;;27.99
80537;BMP280;69867;47.074;15.404;2023-06-26T08:28:01;97401.69;;;28.25
80537;BMP280;69867;47.074;15.404;2023-06-26T08:30:27;97401.56;;;28.45
80537;BMP280;69867;47.074;15.404;2023-06-26T08:32:52;97404.00;;;28.56
80537;BMP280;69867;47.074;15.404;2023-06-26T08:35:17;97403.25;;;28.46
80537;BMP280;69867;47.074;15.404;2023-06-26T08:37:43;97398.31;;;27.96
80537;BMP280;69867;47.074;15.404;2023-06-26T08:40:09;97407.66;;;27.82
80537;BMP280;69867;47.074;15.404;2023-06-26T08:42:35;97397.88;;;27.73
80537;BMP280;69867;47.074;15.404;2023-06-26T08:45:00;97397.13;;;27.81
80537;BMP280;69867;47.074;15.404;2023-06-26T08:47:26;97397.38;;;27.87
80537;BMP280;69867;47.074;15.404;2023-06-26T08:49:58;97402.66;;;27.97
80537;BMP280;69867;47.074;15.404;2023-06-26T08:52:32;97391.25;;;28.04
80537;BMP280;69867;47.074;15.404;2023-06-26T08:54:59;97390.59;;;28.20
80537;BMP280;69867;47.074;15.404;2023-06-26T08:57:27;97392.78;;;28.34
80537;BMP280;69867;47.074;15.404;2023-06-26T08:59:53;97388.56;;;28.50
80537;BMP280;69867;47.074;15.404;2023-06-26T09:02:19;97382.09;;;28.34
80537;BMP280;69867;47.074;15.404;2023-06-26T09:04:45;97380.94;;;28.10
80537;BMP280;69867;47.074;15.404;2023-06-26T09:07:10;97386.28;;;28.10
80537;BMP280;69867;47.074;15.404;2023-06-26T09:09:35;97375.53;;;28.19
80537;BMP280;69867;47.074;15.404;2023-06-26T09:12:02;97365.28;;;28.42
80537;BMP280;69867;47.074;15.404;2023-06-26T09:14:28;97359.81;;;28.61
80537;BMP280;69867;47.074;15.404;2023-06-26T09:16:54;97356.13;;;28.80
80537;BMP280;69867;47.074;15.404;2023-06-26T09:19:19;97367.97;;;28.95
80537;BMP280;69867;47.074;15.404;2023-06-26T09:21:45;97351.50;;;29.08
80537;BMP280;69867;47.074;15.404;2023-06-26T09:24:13;97355.50;;;29.04
80537;BMP280;69867;47.074;15.404;2023-06-26T09:26:40;97352.59;;;28.97
80537;BMP280;69867;47.074;15.404;2023-06-26T09:29:06;97349.88;;;28.89
80537;BMP280;69867;47.074;15.404;2023-06-26T09:31:37;97350.72;;;28.72
80537;BMP280;69867;47.074;15.404;2023-06-26T09:34:02;97350.53;;;28.56
80537;BMP280;69867;47.074;15.404;2023-06-26T09:36:29;97354.75;;;28.58
80537;BMP280;69867;47.074;15.404;2023-06-26T09:38:55;97352.53;;;28.72
80537;BMP280;69867;47.074;15.404;2023-06-26T09:41:20;97339.84;;;28.74
80537;BMP280;69867;47.074;15.404;2023-06-26T09:43:50;97339.50;;;28.86
80537;BMP280;69867;47.074;15.404;2023-06-26T09:46:28;97350.56;;;28.91
80537;BMP280;69867;47.074;15.404;2023-06-26T09:48:58;97347.19;;;28.54
80537;BMP280;69867;47.074;15.404;2023-06-26T09:51:24;97344.13;;;28.49
80537;BMP280;69867;47.074;15.404;2023-06-26T09:53:49;97331.38;;;28.60
80537;BMP280;69867;47.074;15.404;2023-06-26T09:56:16;97328.09;;;28.84
80537;BMP280;69867;47.074;15.404;2023-06-26T09:58:42;97327.16;;;28.93
80537;BMP280;69867;47.074;15.404;2023-06-26T10:01:08;97320.75;;;28.86
80537;BMP280;69867;47.074;15.404;2023-06-26T10:03:34;97322.03;;;29.00
80537;BMP280;69867;47.074;15.404;2023-06-26T10:06:00;97315.56;;;29.11
80537;BMP280;69867;47.074;15.404;2023-06-26T10:08:25;97313.72;;;29.11
80537;BMP280;69867;47.074;15.404;2023-06-26T10:10:52;97317.19;;;29.04
80537;BMP280;69867;47.074;15.404;2023-06-26T10:13:23;97319.72;;;28.61
80537;BMP280;69867;47.074;15.404;2023-06-26T10:15:50;97320.13;;;28.57
80537;BMP280;69867;47.074;15.404;2023-06-26T10:18:17;97320.63;;;28.70
80537;BMP280;69867;47.074;15.404;2023-06-26T10:20:46;97316.69;;;28.82
80537;BMP280;69867;47.074;15.404;2023-06-26T10:23:13;97317.78;;;28.89
80537;BMP280;69867;47.074;15.404;2023-06-26T10:25:42;97307.13;;;28.97
80537;BMP280;69867;47.074;15.404;2023-06-26T10:28:10;97308.28;;;28.95
80537;BMP280;69867;47.074;15.404;2023-06-26T10:30:39;97306.28;;;28.97
80537;BMP280;69867;47.074;15.404;2023-06-26T10:33:05;97304.41;;;29.15
80537;BMP280;69867;47.074;15.404;2023-06-26T10:35:31;97306.53;;;29.38
80537;BMP280;69867;47.074;15.404;2023-06-26T10:38:03;97309.09;;;29.47
80537;BMP280;69867;47.074;15.404;2023-06-26T10:40:28;97304.47;;;29.57
80537;BMP280;69867;47.074;15.404;2023-06-26T10:43:09;97310.63;;;29.50
80537;BMP280;69867;47.074;15.404;2023-06-26T10:45:34;97300.41;;;29.45
80537;BMP280;69867;47.074;15.404;2023-06-26T10:48:00;97309.34;;;29.36
80537;BMP280;69867;47.074;15.404;2023-06-26T10:50:32;97293.97;;;29.38
80537;BMP280;69867;47.074;15.404;2023-06-26T10:55:33;97290.19;;;29.91
80537;BMP280;69867;47.074;15.404;2023-06-26T10:57:58;97289.88;;;29.94
80537;BMP280;69867;47.074;15.404;2023-06-26T11:00:23;97294.28;;;30.03
80537;BMP280;69867;47.074;15.404;2023-06-26T11:02:50;97295.31;;;30.27
80537;BMP280;69867;47.074;15.404;2023-06-26T11:05:35;97289.16;;;30.67
80537;BMP280;69867;47.074;15.404;2023-06-26T11:13:17;97288.28;;;30.99
80537;BMP280;69867;47.074;15.404;2023-06-26T11:15:43;97295.66;;;30.97
80537;BMP280;69867;47.074;15.404;2023-06-26T11:18:08;97289.94;;;31.08
80537;BMP280;69867;47.074;15.404;2023-06-26T11:20:34;97285.91;;;31.20
80537;BMP280;69867;47.074;15.404;2023-06-26T11:23:00;97291.47;;;31.66
80537;BMP280;69867;47.074;15.404;2023-06-26T11:25:25;97285.06;;;32.06
80537;BMP280;69867;47.074;15.404;2023-06-26T11:27:53;97284.13;;;32.22
80537;BMP280;69867;47.074;15.404;2023-06-26T11:30:25;97273.81;;;32.56
80537;BMP280;69867;47.074;15.404;2023-06-26T11:32:51;97276.88;;;32.53
80537;BMP280;69867;47.074;15.404;2023-06-26T11:35:23;97286.41;;;32.33
80537;BMP280;69867;47.074;15.404;2023-06-26T11:37:48;97285.47;;;32.18
80537;BMP280;69867;47.074;15.404;2023-06-26T11:40:18;97282.53;;;32.04
80537;BMP280;69867;47.074;15.404;2023-06-26T11:42:44;97284.63;;;31.94
80537;BMP280;69867;47.074;15.404;2023-06-26T11:45:09;97278.34;;;31.79
80537;BMP280;69867;47.074;15.404;2023-06-26T11:47:34;97288.78;;;31.66
80537;BMP280;69867;47.074;15.404;2023-06-26T11:50:04;97274.22;;;31.91
80537;BMP280;69867;47.074;15.404;2023-06-26T11:52:29;97281.22;;;32.00
80537;BMP280;69867;47.074;15.404;2023-06-26T11:54:57;97282.91;;;32.01
80537;BMP280;69867;47.074;15.404;2023-06-26T11:57:22;97282.53;;;32.04
80537;BMP280;69867;47.074;15.404;2023-06-26T11:59:50;97276.22;;;31.97
80537;BMP280;69867;47.074;15.404;2023-06-26T12:02:16;97282.03;;;31.78
80537;BMP280;69867;47.074;15.404;2023-06-26T12:04:42;97275.88;;;31.61
80537;BMP280;69867;47.074;15.404;2023-06-26T12:07:09;97283.81;;;31.46
80537;BMP280;69867;47.074;15.404;2023-06-26T12:09:41;97271.94;;;31.41
80537;BMP280;69867;47.074;15.404;2023-06-26T12:12:08;97271.47;;;31.29
80537;BMP280;69867;47.074;15.404;2023-06-26T12:14:34;97280.22;;;31.15
80537;BMP280;69867;47.074;15.404;2023-06-26T12:17:12;97266.78;;;31.07
80537;BMP280;69867;47.074;15.404;2023-06-26T12:19:39;97272.69;;;30.94
80537;BMP280;69867;47.074;15.404;2023-06-26T12:22:08;97278.06;;;30.78
80537;BMP280;69867;47.074;15.404;2023-06-26T12:24:36;97272.22;;;30.74
80537;BMP280;69867;47.074;15.404;2023-06-26T12:27:01;97267.84;;;30.49
80537;BMP280;69867;47.074;15.404;2023-06-26T12:29:32;97276.56;;;30.35
80537;BMP280;69867;47.074;15.404;2023-06-26T12:31:57;97272.34;;;30.16
80537;BMP280;69867;47.074;15.404;2023-06-26T12:34:32;97270.34;;;30.18
80537;BMP280;69867;47.074;15.404;2023-06-26T12:37:04;97265.81;;;30.10
80537;BMP280;69867;47.074;15.404;2023-06-26T12:39:29;97268.81;;;30.07
80537;BMP280;69867;47.074;15.404;2023-06-26T12:41:56;97264.44;;;29.98
80537;BMP280;69867;47.074;15.404;2023-06-26T12:44:26;97262.75;;;29.97
80537;BMP280;69867;47.074;15.404;2023-06-26T12:47:09;97268.72;;;29.83
80537;BMP280;69867;47.074;15.404;2023-06-26T12:49:36;97266.69;;;29.77
80537;BMP280;69867;47.074;15.404;2023-06-26T12:52:04;97258.69;;;29.85
80537;BMP280;69867;47.074;15.404;2023-06-26T12:54:29;97255.69;;;29.88
80537;BMP280;69867;47.074;15.404;2023-06-26T12:56:55;97254.72;;;29.97
80537;BMP280;69867;47.074;15.404;2023-06-26T12:59:21;97252.88;;;29.98
80537;BMP280;69867;47.074;15.404;2023-06-26T13:01:47;97250.56;;;30.03
80537;BMP280;69867;47.074;15.404;2023-06-26T13:04:13;97250.41;;;30.04
80537;BMP280;69867;47.074;15.404;2023-06-26T13:06:38;97250.06;;;30.15
80537;BMP280;69867;47.074;15.404;2023-06-26T13:09:03;97248.41;;;30.22
80537;BMP280;69867;47.074;15.404;2023-06-26T13:11:29;97246.56;;;30.23
80537;BMP280;69867;47.074;15.404;2023-06-26T13:13:54;97240.38;;;30.14
80537;BMP280;69867;47.074;15.404;2023-06-26T13:16:19;97242.94;;;29.82
80537;BMP280;69867;47.074;15.404;2023-06-26T13:18:44;97233.56;;;29.86
80537;BMP280;69867;47.074;15.404;2023-06-26T13:21:10;97242.00;;;29.99
80537;BMP280;69867;47.074;15.404;2023-06-26T13:23:35;97241.38;;;30.13
80537;BMP280;69867;47.074;15.404;2023-06-26T13:26:01;97239.69;;;30.04
80537;BMP280;69867;47.074;15.404;2023-06-26T13:28:26;97237.00;;;30.04
80537;BMP280;69867;47.074;15.404;2023-06-26T13:30:51;97239.47;;;29.98
80537;BMP280;69867;47.074;15.404;2023-06-26T13:33:17;97237.00;;;30.04
80537;BMP280;69867;47.074;15.404;2023-06-26T13:35:42;97225.78;;;30.17
80537;BMP280;69867;47.074;15.404;2023-06-26T13:38:07;97226.97;;;30.31
80537;BMP280;69867;47.074;15.404;2023-06-26T13:40:33;97221.28;;;30.34
80537;BMP280;69867;47.074;15.404;2023-06-26T13:42:59;97233.84;;;30.33
80537;BMP280;69867;47.074;15.404;2023-06-26T13:45:25;97228.31;;;30.35
80537;BMP280;69867;47.074;15.404;2023-06-26T13:47:50;97224.28;;;30.47
80537;BMP280;69867;47.074;15.404;2023-06-26T13:50:16;97225.94;;;30.48
80537;BMP280;69867;47.074;15.404;2023-06-26T13:52:41;97227.47;;;30.34
80537;BMP280;69867;47.074;15.404;2023-06-26T13:55:07;97225.28;;;30.30
80537;BMP280;69867;47.074;15.404;2023-06-26T13:57:32;97218.25;;;30.20
80537;BMP280;69867;47.074;15.404;2023-06-26T13:59:57;97211.38;;;30.18
80537;BMP280;69867;47.074;15.404;2023-06-26T14:02:23;97218.25;;;30.29
80537;BMP280;69867;47.074;15.404;2023-06-26T14:04:48;97219.41;;;30.34